sensor_id;sensor_type;location;lat;lon;timestamp;temperature;humidity
1592;DHT22;789;51.612;7.510;2024-02-16T00:02:22;14.60;1.00
1592;DHT22;789;51.612;7.510;2024-02-16T00:04:49;15.10;1.00
1592;DHT22;789;51.612;7.510;2024-02-16T00:07:16;14.60;1.00
1592;DHT22;789;51.612;7.510;2024-02-16T00:09:42;14.70;1.00
1592;DHT22;789;51.612;7.510;2024-02-16T00:12:10;14.70;1.00
1592;DHT22;789;51.612;7.510;2024-02-16T00:14:37;14.70;1.00
1592;DHT22;789;51.612;7.510;2024-02-16T00:17:04;14.70;1.00
1592;DHT22;789;51.612;7.510;2024-02-16T00:19:32;14.70;1.00
1592;DHT22;789;51.612;7.510;2024-02-16T00:21:59;14.70;1.00
1592;DHT22;789;51.612;7.510;2024-02-16T00:24:25;14.80;1.00
1592;DHT22;789;51.612;7.510;2024-02-16T00:26:52;14.70;1.00
1592;DHT22;789;51.612;7.510;2024-02-16T00:29:20;14.70;1.00
1592;DHT22;789;51.612;7.510;2024-02-16T00:31:47;14.70;1.00
1592;DHT22;789;51.612;7.510;2024-02-16T00:34:14;14.70;1.00
1592;DHT22;789;51.612;7.510;2024-02-16T00:36:41;15.30;1.00
1592;DHT22;789;51.612;7.510;2024-02-16T00:39:07;14.70;1.00
1592;DHT22;789;51.612;7.510;2024-02-16T00:41:34;14.80;1.00
1592;DHT22;789;51.612;7.510;2024-02-16T00:44:01;14.90;1.00
1592;DHT22;789;51.612;7.510;2024-02-16T00:46:29;14.70;1.00
1592;DHT22;789;51.612;7.510;2024-02-16T00:48:57;14.60;1.00
1592;DHT22;789;51.612;7.510;2024-02-16T00:51:24;14.60;1.00
1592;DHT22;789;51.612;7.510;2024-02-16T00:53:51;14.70;1.00
1592;DHT22;789;51.612;7.510;2024-02-16T00:56:18;15.20;1.00
1592;DHT22;789;51.612;7.510;2024-02-16T00:58:44;14.70;1.00
1592;DHT22;789;51.612;7.510;2024-02-16T01:01:11;14.70;1.00
1592;DHT22;789;51.612;7.510;2024-02-16T01:03:40;14.70;1.00
1592;DHT22;789;51.612;7.510;2024-02-16T01:06:08;14.70;1.00
1592;DHT22;789;51.612;7.510;2024-02-16T01:08:35;15.10;1.00
1592;DHT22;789;51.612;7.510;2024-02-16T01:11:02;14.70;1.00
1592;DHT22;789;51.612;7.510;2024-02-16T01:13:29;14.80;1.00
1592;DHT22;789;51.612;7.510;2024-02-16T01:15:56;14.70;1.00
1592;DHT22;789;51.612;7.510;2024-02-16T01:18:24;14.80;1.00
1592;DHT22;789;51.612;7.510;2024-02-16T01:20:52;14.80;1.00
1592;DHT22;789;51.612;7.510;2024-02-16T01:23:20;15.00;1.00
1592;DHT22;789;51.612;7.510;2024-02-16T01:25:47;14.60;1.00
1592;DHT22;789;51.612;7.510;2024-02-16T01:28:14;14.50;1.00
1592;DHT22;789;51.612;7.510;2024-02-16T01:30:42;14.50;1.00
1592;DHT22;789;51.612;7.510;2024-02-16T01:33:08;14.60;1.00
1592;DHT22;789;51.612;7.510;2024-02-16T01:35:36;14.60;1.00
1592;DHT22;789;51.612;7.510;2024-02-16T01:38:04;14.60;1.00
1592;DHT22;789;51.612;7.510;2024-02-16T01:40:31;14.50;1.00
1592;DHT22;789;51.612;7.510;2024-02-16T01:42:58;15.10;1.00
1592;DHT22;789;51.612;7.510;2024-02-16T01:45:24;14.70;1.00
1592;DHT22;789;51.612;7.510;2024-02-16T01:47:51;14.70;1.00
1592;DHT22;789;51.612;7.510;2024-02-16T01:50:19;14.80;1.00
1592;DHT22;789;51.612;7.510;2024-02-16T01:52:47;14.70;1.00
1592;DHT22;789;51.612;7.510;2024-02-16T01:55:16;14.60;1.00
1592;DHT22;789;51.612;7.510;2024-02-16T01:57:45;14.90;1.00
1592;DHT22;789;51.612;7.510;2024-02-16T02:00:13;14.70;1.00
1592;DHT22;789;51.612;7.510;2024-02-16T02:02:41;14.70;1.00
1592;DHT22;789;51.612;7.510;2024-02-16T02:05:10;14.60;1.00
1592;DHT22;789;51.612;7.510;2024-02-16T02:07:37;14.60;1.00
1592;DHT22;789;51.612;7.510;2024-02-16T02:10:04;14.70;1.00
1592;DHT22;789;51.612;7.510;2024-02-16T02:12:32;14.70;1.00
1592;DHT22;789;51.612;7.510;2024-02-16T02:14:59;14.60;1.00
1592;DHT22;789;51.612;7.510;2024-02-16T02:17:26;14.60;1.00
1592;DHT22;789;51.612;7.510;2024-02-16T02:19:53;14.60;1.00
1592;DHT22;789;51.612;7.510;2024-02-16T02:22:21;14.50;1.00
1592;DHT22;789;51.612;7.510;2024-02-16T02:24:48;14.60;1.00
1592;DHT22;789;51.612;7.510;2024-02-16T02:27:15;14.50;1.00
1592;DHT22;789;51.612;7.510;2024-02-16T02:29:42;15.00;1.00
1592;DHT22;789;51.612;7.510;2024-02-16T02:32:09;14.50;1.00
1592;DHT22;789;51.612;7.510;2024-02-16T02:34:36;14.50;1.00
1592;DHT22;789;51.612;7.510;2024-02-16T02:37:03;14.50;1.00
1592;DHT22;789;51.612;7.510;2024-02-16T02:39:32;15.10;1.00
1592;DHT22;789;51.612;7.510;2024-02-16T02:41:59;14.50;1.00
1592;DHT22;789;51.612;7.510;2024-02-16T02:44:25;14.50;1.00
1592;DHT22;789;51.612;7.510;2024-02-16T02:46:52;15.10;1.00
1592;DHT22;789;51.612;7.510;2024-02-16T02:49:19;14.60;1.00
1592;DHT22;789;51.612;7.510;2024-02-16T02:51:46;14.50;1.00
1592;DHT22;789;51.612;7.510;2024-02-16T02:54:12;14.70;1.00
1592;DHT22;789;51.612;7.510;2024-02-16T02:56:40;14.60;1.00
1592;DHT22;789;51.612;7.510;2024-02-16T02:59:07;14.60;1.00
1592;DHT22;789;51.612;7.510;2024-02-16T03:01:36;14.90;1.00
1592;DHT22;789;51.612;7.510;2024-02-16T03:04:03;14.60;1.00
1592;DHT22;789;51.612;7.510;2024-02-16T03:06:29;14.60;1.00
1592;DHT22;789;51.612;7.510;2024-02-16T03:08:56;14.80;1.00
1592;DHT22;789;51.612;7.510;2024-02-16T03:11:23;14.60;1.00
1592;DHT22;789;51.612;7.510;2024-02-16T03:13:51;15.10;1.00
1592;DHT22;789;51.612;7.510;2024-02-16T03:16:18;14.60;1.00
1592;DHT22;789;51.612;7.510;2024-02-16T03:18:45;14.60;1.00
1592;DHT22;789;51.612;7.510;2024-02-16T03:21:13;14.60;1.00
1592;DHT22;789;51.612;7.510;2024-02-16T03:23:42;14.50;1.00
1592;DHT22;789;51.612;7.510;2024-02-16T03:26:14;14.50;1.00
1592;DHT22;789;51.612;7.510;2024-02-16T03:28:41;14.50;1.00
1592;DHT22;789;51.612;7.510;2024-02-16T03:31:16;14.50;1.00
1592;DHT22;789;51.612;7.510;2024-02-16T03:33:46;14.50;1.00
1592;DHT22;789;51.612;7.510;2024-02-16T03:36:13;14.90;1.00
1592;DHT22;789;51.612;7.510;2024-02-16T03:38:41;14.90;1.00
1592;DHT22;789;51.612;7.510;2024-02-16T03:41:12;14.50;1.00
1592;DHT22;789;51.612;7.510;2024-02-16T03:43:39;14.80;1.00
1592;DHT22;789;51.612;7.510;2024-02-16T03:46:06;14.50;1.00
1592;DHT22;789;51.612;7.510;2024-02-16T03:48:35;14.50;1.00
1592;DHT22;789;51.612;7.510;2024-02-16T03:51:01;14.50;1.00
1592;DHT22;789;51.612;7.510;2024-02-16T03:53:28;14.50;1.00
1592;DHT22;789;51.612;7.510;2024-02-16T03:55:55;14.50;1.00
1592;DHT22;789;51.612;7.510;2024-02-16T03:58:22;14.40;1.00
1592;DHT22;789;51.612;7.510;2024-02-16T04:00:50;15.00;1.00
1592;DHT22;789;51.612;7.510;2024-02-16T04:03:18;14.50;1.00
1592;DHT22;789;51.612;7.510;2024-02-16T04:05:46;14.40;1.00
1592;DHT22;789;51.612;7.510;2024-02-16T04:08:13;14.90;1.00
1592;DHT22;789;51.612;7.510;2024-02-16T04:10:39;14.40;1.00
1592;DHT22;789;51.612;7.510;2024-02-16T04:13:06;14.40;1.00
1592;DHT22;789;51.612;7.510;2024-02-16T04:15:33;14.40;1.00
1592;DHT22;789;51.612;7.510;2024-02-16T04:17:59;14.50;1.00
1592;DHT22;789;51.612;7.510;2024-02-16T04:20:26;14.80;1.00
1592;DHT22;789;51.612;7.510;2024-02-16T04:22:54;14.30;1.00
1592;DHT22;789;51.612;7.510;2024-02-16T04:25:21;14.40;1.00
1592;DHT22;789;51.612;7.510;2024-02-16T04:27:48;14.40;1.00
1592;DHT22;789;51.612;7.510;2024-02-16T04:30:14;14.40;1.00
1592;DHT22;789;51.612;7.510;2024-02-16T04:32:41;14.40;1.00
1592;DHT22;789;51.612;7.510;2024-02-16T04:35:08;14.30;1.00
1592;DHT22;789;51.612;7.510;2024-02-16T04:37:37;14.30;1.00
1592;DHT22;789;51.612;7.510;2024-02-16T04:40:06;14.30;1.00
1592;DHT22;789;51.612;7.510;2024-02-16T04:42:37;14.30;1.00
1592;DHT22;789;51.612;7.510;2024-02-16T04:45:05;14.90;1.00
1592;DHT22;789;51.612;7.510;2024-02-16T04:47:33;14.30;1.00
1592;DHT22;789;51.612;7.510;2024-02-16T04:49:59;14.20;1.00
1592;DHT22;789;51.612;7.510;2024-02-16T04:52:26;14.80;1.00
1592;DHT22;789;51.612;7.510;2024-02-16T04:54:53;14.20;1.00
1592;DHT22;789;51.612;7.510;2024-02-16T04:57:21;14.20;1.00
1592;DHT22;789;51.612;7.510;2024-02-16T04:59:48;14.20;1.00
1592;DHT22;789;51.612;7.510;2024-02-16T05:02:14;14.80;1.00
1592;DHT22;789;51.612;7.510;2024-02-16T05:04:41;14.60;1.00
1592;DHT22;789;51.612;7.510;2024-02-16T05:07:08;14.30;1.00
1592;DHT22;789;51.612;7.510;2024-02-16T05:09:35;14.30;1.00
1592;DHT22;789;51.612;7.510;2024-02-16T05:12:02;14.30;1.00
1592;DHT22;789;51.612;7.510;2024-02-16T05:14:30;14.40;1.00
1592;DHT22;789;51.612;7.510;2024-02-16T05:16:56;14.40;1.00
1592;DHT22;789;51.612;7.510;2024-02-16T05:19:23;14.40;1.00
1592;DHT22;789;51.612;7.510;2024-02-16T05:21:50;14.40;1.00
1592;DHT22;789;51.612;7.510;2024-02-16T05:24:17;14.40;1.00
1592;DHT22;789;51.612;7.510;2024-02-16T05:26:44;14.40;1.00
1592;DHT22;789;51.612;7.510;2024-02-16T05:29:11;14.40;1.00
1592;DHT22;789;51.612;7.510;2024-02-16T05:31:39;14.70;1.00
1592;DHT22;789;51.612;7.510;2024-02-16T05:34:05;14.70;1.00
1592;DHT22;789;51.612;7.510;2024-02-16T05:36:32;14.50;1.00
1592;DHT22;789;51.612;7.510;2024-02-16T05:39:01;14.40;1.00
1592;DHT22;789;51.612;7.510;2024-02-16T05:41:45;14.50;1.00
1592;DHT22;789;51.612;7.510;2024-02-16T05:44:12;14.50;1.00
1592;DHT22;789;51.612;7.510;2024-02-16T05:46:40;14.50;1.00
1592;DHT22;789;51.612;7.510;2024-02-16T05:49:07;14.50;1.00
1592;DHT22;789;51.612;7.510;2024-02-16T05:51:35;14.40;1.00
1592;DHT22;789;51.612;7.510;2024-02-16T05:54:12;14.40;1.00
1592;DHT22;789;51.612;7.510;2024-02-16T05:56:39;14.40;1.00
1592;DHT22;789;51.612;7.510;2024-02-16T05:59:06;14.40;1.00
1592;DHT22;789;51.612;7.510;2024-02-16T06:01:33;14.40;1.00
1592;DHT22;789;51.612;7.510;2024-02-16T06:04:01;14.40;1.00
1592;DHT22;789;51.612;7.510;2024-02-16T06:06:28;14.50;1.00
1592;DHT22;789;51.612;7.510;2024-02-16T06:08:55;14.90;1.00
1592;DHT22;789;51.612;7.510;2024-02-16T06:11:21;14.50;1.00
1592;DHT22;789;51.612;7.510;2024-02-16T06:13:48;14.50;1.00
1592;DHT22;789;51.612;7.510;2024-02-16T06:16:15;14.40;1.00
1592;DHT22;789;51.612;7.510;2024-02-16T06:18:42;14.40;1.00
1592;DHT22;789;51.612;7.510;2024-02-16T06:21:10;14.40;1.00
1592;DHT22;789;51.612;7.510;2024-02-16T06:23:38;14.30;1.00
1592;DHT22;789;51.612;7.510;2024-02-16T06:26:06;14.30;1.00
1592;DHT22;789;51.612;7.510;2024-02-16T06:28:33;14.40;1.00
1592;DHT22;789;51.612;7.510;2024-02-16T06:31:00;14.40;1.00
1592;DHT22;789;51.612;7.510;2024-02-16T06:33:26;14.40;1.00
1592;DHT22;789;51.612;7.510;2024-02-16T06:35:53;14.40;1.00
1592;DHT22;789;51.612;7.510;2024-02-16T06:38:22;14.40;1.00
1592;DHT22;789;51.612;7.510;2024-02-16T06:40:48;14.40;1.00
1592;DHT22;789;51.612;7.510;2024-02-16T06:43:15;15.00;1.00
1592;DHT22;789;51.612;7.510;2024-02-16T06:45:42;14.50;1.00
1592;DHT22;789;51.612;7.510;2024-02-16T06:48:08;14.40;1.00
1592;DHT22;789;51.612;7.510;2024-02-16T06:50:36;15.00;1.00
1592;DHT22;789;51.612;7.510;2024-02-16T06:53:03;14.50;1.00
1592;DHT22;789;51.612;7.510;2024-02-16T06:55:32;15.00;1.00
1592;DHT22;789;51.612;7.510;2024-02-16T06:57:59;14.40;1.00
1592;DHT22;789;51.612;7.510;2024-02-16T07:00:25;14.40;1.00
1592;DHT22;789;51.612;7.510;2024-02-16T07:02:52;14.50;1.00
1592;DHT22;789;51.612;7.510;2024-02-16T07:05:19;14.40;1.00
1592;DHT22;789;51.612;7.510;2024-02-16T07:07:46;14.60;1.00
1592;DHT22;789;51.612;7.510;2024-02-16T07:10:13;14.50;1.00
1592;DHT22;789;51.612;7.510;2024-02-16T07:12:41;14.50;1.00
1592;DHT22;789;51.612;7.510;2024-02-16T07:15:08;14.50;1.00
1592;DHT22;789;51.612;7.510;2024-02-16T07:17:35;14.50;1.00
1592;DHT22;789;51.612;7.510;2024-02-16T07:20:02;14.50;1.00
1592;DHT22;789;51.612;7.510;2024-02-16T07:22:30;14.60;1.00
1592;DHT22;789;51.612;7.510;2024-02-16T07:24:57;14.60;1.00
1592;DHT22;789;51.612;7.510;2024-02-16T07:27:26;15.10;1.00
1592;DHT22;789;51.612;7.510;2024-02-16T07:29:54;14.60;1.00
1592;DHT22;789;51.612;7.510;2024-02-16T07:32:21;15.20;1.00
1592;DHT22;789;51.612;7.510;2024-02-16T07:34:48;14.60;1.00
1592;DHT22;789;51.612;7.510;2024-02-16T07:37:15;14.80;1.00
1592;DHT22;789;51.612;7.510;2024-02-16T07:39:42;14.80;1.00
1592;DHT22;789;51.612;7.510;2024-02-16T07:42:09;14.70;1.00
1592;DHT22;789;51.612;7.510;2024-02-16T07:44:36;14.80;1.00
1592;DHT22;789;51.612;7.510;2024-02-16T07:47:05;14.80;1.00
1592;DHT22;789;51.612;7.510;2024-02-16T07:49:32;14.90;1.00
1592;DHT22;789;51.612;7.510;2024-02-16T07:51:58;14.90;1.00
1592;DHT22;789;51.612;7.510;2024-02-16T07:54:25;14.90;1.00
1592;DHT22;789;51.612;7.510;2024-02-16T07:56:53;14.60;1.00
1592;DHT22;789;51.612;7.510;2024-02-16T07:59:20;15.00;1.00
1592;DHT22;789;51.612;7.510;2024-02-16T08:01:48;14.90;1.00
1592;DHT22;789;51.612;7.510;2024-02-16T08:04:17;15.10;1.00
1592;DHT22;789;51.612;7.510;2024-02-16T08:06:43;15.20;1.00
1592;DHT22;789;51.612;7.510;2024-02-16T08:09:10;15.30;1.00
1592;DHT22;789;51.612;7.510;2024-02-16T08:11:37;15.30;1.00
1592;DHT22;789;51.612;7.510;2024-02-16T08:14:03;15.40;1.00
1592;DHT22;789;51.612;7.510;2024-02-16T08:16:30;15.50;1.00
1592;DHT22;789;51.612;7.510;2024-02-16T08:18:57;15.50;1.00
1592;DHT22;789;51.612;7.510;2024-02-16T08:21:25;15.50;1.00
1592;DHT22;789;51.612;7.510;2024-02-16T08:23:52;15.50;1.00
1592;DHT22;789;51.612;7.510;2024-02-16T08:26:18;16.10;1.00
1592;DHT22;789;51.612;7.510;2024-02-16T08:28:45;15.40;1.00
1592;DHT22;789;51.612;7.510;2024-02-16T08:31:15;15.40;1.00
1592;DHT22;789;51.612;7.510;2024-02-16T08:33:43;15.40;1.00
1592;DHT22;789;51.612;7.510;2024-02-16T08:36:10;15.70;1.00
1592;DHT22;789;51.612;7.510;2024-02-16T08:38:38;15.60;1.00
1592;DHT22;789;51.612;7.510;2024-02-16T08:41:05;15.90;1.00
1592;DHT22;789;51.612;7.510;2024-02-16T08:43:32;15.60;1.00
1592;DHT22;789;51.612;7.510;2024-02-16T08:45:59;15.60;1.00
1592;DHT22;789;51.612;7.510;2024-02-16T08:48:25;15.70;1.00
1592;DHT22;789;51.612;7.510;2024-02-16T08:50:52;15.70;1.00
1592;DHT22;789;51.612;7.510;2024-02-16T08:53:19;15.70;1.00
1592;DHT22;789;51.612;7.510;2024-02-16T08:55:47;15.60;1.00
1592;DHT22;789;51.612;7.510;2024-02-16T08:58:13;15.60;1.00
1592;DHT22;789;51.612;7.510;2024-02-16T09:00:40;15.50;1.00
1592;DHT22;789;51.612;7.510;2024-02-16T09:03:07;15.50;1.00
1592;DHT22;789;51.612;7.510;2024-02-16T09:05:34;15.40;1.00
1592;DHT22;789;51.612;7.510;2024-02-16T09:08:01;15.50;1.00
1592;DHT22;789;51.612;7.510;2024-02-16T09:10:28;15.60;1.00
1592;DHT22;789;51.612;7.510;2024-02-16T09:12:56;15.50;1.00
1592;DHT22;789;51.612;7.510;2024-02-16T09:15:24;15.40;1.00
1592;DHT22;789;51.612;7.510;2024-02-16T09:17:51;15.40;1.00
1592;DHT22;789;51.612;7.510;2024-02-16T09:20:18;15.40;1.00
1592;DHT22;789;51.612;7.510;2024-02-16T09:22:48;15.40;1.00
1592;DHT22;789;51.612;7.510;2024-02-16T09:25:15;15.40;1.00
1592;DHT22;789;51.612;7.510;2024-02-16T09:27:42;15.40;1.00
1592;DHT22;789;51.612;7.510;2024-02-16T09:30:12;15.50;1.00
1592;DHT22;789;51.612;7.510;2024-02-16T09:32:40;15.60;1.00
1592;DHT22;789;51.612;7.510;2024-02-16T09:35:08;15.60;1.00
1592;DHT22;789;51.612;7.510;2024-02-16T09:37:35;15.70;1.00
1592;DHT22;789;51.612;7.510;2024-02-16T09:40:03;15.70;1.00
1592;DHT22;789;51.612;7.510;2024-02-16T09:42:30;15.80;1.00
1592;DHT22;789;51.612;7.510;2024-02-16T09:44:57;15.70;1.00
1592;DHT22;789;51.612;7.510;2024-02-16T09:47:26;16.20;1.00
1592;DHT22;789;51.612;7.510;2024-02-16T09:49:55;15.80;1.00
1592;DHT22;789;51.612;7.510;2024-02-16T09:52:23;15.80;1.00
1592;DHT22;789;51.612;7.510;2024-02-16T09:54:50;15.80;1.00
1592;DHT22;789;51.612;7.510;2024-02-16T09:57:17;16.30;1.00
1592;DHT22;789;51.612;7.510;2024-02-16T09:59:44;15.70;1.00
1592;DHT22;789;51.612;7.510;2024-02-16T10:02:11;15.80;1.00
1592;DHT22;789;51.612;7.510;2024-02-16T10:04:39;16.30;1.00
1592;DHT22;789;51.612;7.510;2024-02-16T10:07:06;15.80;1.00
1592;DHT22;789;51.612;7.510;2024-02-16T10:09:33;16.00;1.00
1592;DHT22;789;51.612;7.510;2024-02-16T10:12:00;16.20;1.00
1592;DHT22;789;51.612;7.510;2024-02-16T10:14:27;15.80;1.00
1592;DHT22;789;51.612;7.510;2024-02-16T10:17:00;15.80;1.00
1592;DHT22;789;51.612;7.510;2024-02-16T10:19:28;15.80;1.00
1592;DHT22;789;51.612;7.510;2024-02-16T10:22:07;15.80;1.00
1592;DHT22;789;51.612;7.510;2024-02-16T10:24:34;15.90;1.00
1592;DHT22;789;51.612;7.510;2024-02-16T10:27:00;16.00;1.00
1592;DHT22;789;51.612;7.510;2024-02-16T10:29:27;16.00;1.00
1592;DHT22;789;51.612;7.510;2024-02-16T10:31:54;16.10;1.00
1592;DHT22;789;51.612;7.510;2024-02-16T10:34:24;16.70;1.00
1592;DHT22;789;51.612;7.510;2024-02-16T10:36:52;16.20;1.00
1592;DHT22;789;51.612;7.510;2024-02-16T10:39:20;16.20;1.00
1592;DHT22;789;51.612;7.510;2024-02-16T10:41:48;16.70;1.00
1592;DHT22;789;51.612;7.510;2024-02-16T10:44:16;16.20;1.00
1592;DHT22;789;51.612;7.510;2024-02-16T10:46:43;16.20;1.00
1592;DHT22;789;51.612;7.510;2024-02-16T10:49:09;16.20;1.00
1592;DHT22;789;51.612;7.510;2024-02-16T10:51:40;16.10;1.00
1592;DHT22;789;51.612;7.510;2024-02-16T10:54:08;16.20;1.00
1592;DHT22;789;51.612;7.510;2024-02-16T10:56:39;16.20;1.00
1592;DHT22;789;51.612;7.510;2024-02-16T10:59:10;16.20;1.00
1592;DHT22;789;51.612;7.510;2024-02-16T11:01:41;16.30;1.00
1592;DHT22;789;51.612;7.510;2024-02-16T11:04:10;16.30;1.00
1592;DHT22;789;51.612;7.510;2024-02-16T11:06:46;16.30;1.00
1592;DHT22;789;51.612;7.510;2024-02-16T11:09:26;16.40;1.00
1592;DHT22;789;51.612;7.510;2024-02-16T11:11:58;16.50;1.00
1592;DHT22;789;51.612;7.510;2024-02-16T11:14:34;16.60;1.00
1592;DHT22;789;51.612;7.510;2024-02-16T11:17:02;16.70;1.00
1592;DHT22;789;51.612;7.510;2024-02-16T11:19:30;16.80;1.00
1592;DHT22;789;51.612;7.510;2024-02-16T11:21:57;16.80;1.00
1592;DHT22;789;51.612;7.510;2024-02-16T11:24:30;16.90;1.00
1592;DHT22;789;51.612;7.510;2024-02-16T11:27:00;17.30;1.00
1592;DHT22;789;51.612;7.510;2024-02-16T11:29:34;17.10;1.00
1592;DHT22;789;51.612;7.510;2024-02-16T11:32:08;17.30;1.00
1592;DHT22;789;51.612;7.510;2024-02-16T11:34:40;17.40;1.00
1592;DHT22;789;51.612;7.510;2024-02-16T11:37:07;17.40;1.00
1592;DHT22;789;51.612;7.510;2024-02-16T11:39:34;17.50;1.00
1592;DHT22;789;51.612;7.510;2024-02-16T11:42:05;17.40;1.00
1592;DHT22;789;51.612;7.510;2024-02-16T11:44:34;17.30;1.00
1592;DHT22;789;51.612;7.510;2024-02-16T11:47:02;17.30;1.00
1592;DHT22;789;51.612;7.510;2024-02-16T11:49:31;17.30;1.00
1592;DHT22;789;51.612;7.510;2024-02-16T11:51:59;17.30;1.00
1592;DHT22;789;51.612;7.510;2024-02-16T11:54:26;17.20;1.00
1592;DHT22;789;51.612;7.510;2024-02-16T11:56:53;17.30;1.00
1592;DHT22;789;51.612;7.510;2024-02-16T11:59:22;17.20;1.00
1592;DHT22;789;51.612;7.510;2024-02-16T12:01:50;17.30;1.00
1592;DHT22;789;51.612;7.510;2024-02-16T12:04:22;17.10;1.00
1592;DHT22;789;51.612;7.510;2024-02-16T12:06:52;17.00;1.00
1592;DHT22;789;51.612;7.510;2024-02-16T12:09:19;16.90;1.00
1592;DHT22;789;51.612;7.510;2024-02-16T12:11:47;16.80;1.00
1592;DHT22;789;51.612;7.510;2024-02-16T12:14:15;16.70;1.00
1592;DHT22;789;51.612;7.510;2024-02-16T12:16:46;16.60;1.00
1592;DHT22;789;51.612;7.510;2024-02-16T12:19:13;16.50;1.00
1592;DHT22;789;51.612;7.510;2024-02-16T12:21:40;16.90;1.00
1592;DHT22;789;51.612;7.510;2024-02-16T12:24:07;16.60;1.00
1592;DHT22;789;51.612;7.510;2024-02-16T12:26:33;16.50;1.00
1592;DHT22;789;51.612;7.510;2024-02-16T12:29:00;16.60;1.00
1592;DHT22;789;51.612;7.510;2024-02-16T12:31:30;16.70;1.00
1592;DHT22;789;51.612;7.510;2024-02-16T12:34:01;16.90;1.00
1592;DHT22;789;51.612;7.510;2024-02-16T12:36:29;16.50;1.00
1592;DHT22;789;51.612;7.510;2024-02-16T12:38:56;16.60;1.00
1592;DHT22;789;51.612;7.510;2024-02-16T12:41:23;16.60;1.00
1592;DHT22;789;51.612;7.510;2024-02-16T12:43:50;16.80;1.00
1592;DHT22;789;51.612;7.510;2024-02-16T12:46:19;16.80;1.00
1592;DHT22;789;51.612;7.510;2024-02-16T12:48:46;16.90;1.00
1592;DHT22;789;51.612;7.510;2024-02-16T12:51:15;16.60;1.00
1592;DHT22;789;51.612;7.510;2024-02-16T12:53:42;16.50;1.00
1592;DHT22;789;51.612;7.510;2024-02-16T12:56:10;16.40;1.00
1592;DHT22;789;51.612;7.510;2024-02-16T12:58:37;16.40;1.00
1592;DHT22;789;51.612;7.510;2024-02-16T13:01:04;16.40;1.00
1592;DHT22;789;51.612;7.510;2024-02-16T13:03:33;16.40;1.00
1592;DHT22;789;51.612;7.510;2024-02-16T13:06:00;16.40;1.00
1592;DHT22;789;51.612;7.510;2024-02-16T13:08:28;16.60;1.00
1592;DHT22;789;51.612;7.510;2024-02-16T13:10:55;16.40;1.00
1592;DHT22;789;51.612;7.510;2024-02-16T13:13:22;16.40;1.00
1592;DHT22;789;51.612;7.510;2024-02-16T13:15:49;16.40;1.00
1592;DHT22;789;51.612;7.510;2024-02-16T13:18:15;16.30;1.00
1592;DHT22;789;51.612;7.510;2024-02-16T13:20:43;16.30;1.00
1592;DHT22;789;51.612;7.510;2024-02-16T13:23:10;16.70;1.00
1592;DHT22;789;51.612;7.510;2024-02-16T13:25:38;16.20;1.00
1592;DHT22;789;51.612;7.510;2024-02-16T13:28:05;16.10;1.00
1592;DHT22;789;51.612;7.510;2024-02-16T13:30:32;16.00;1.00
1592;DHT22;789;51.612;7.510;2024-02-16T13:32:59;16.00;1.00
1592;DHT22;789;51.612;7.510;2024-02-16T13:35:26;16.00;1.00
1592;DHT22;789;51.612;7.510;2024-02-16T13:37:54;16.00;1.00
1592;DHT22;789;51.612;7.510;2024-02-16T13:40:21;16.00;1.00
1592;DHT22;789;51.612;7.510;2024-02-16T13:42:50;16.50;1.00
1592;DHT22;789;51.612;7.510;2024-02-16T13:45:17;16.10;1.00
1592;DHT22;789;51.612;7.510;2024-02-16T13:47:44;16.00;1.00
1592;DHT22;789;51.612;7.510;2024-02-16T13:50:11;16.10;1.00
1592;DHT22;789;51.612;7.510;2024-02-16T13:52:43;16.00;1.00
1592;DHT22;789;51.612;7.510;2024-02-16T13:55:11;16.00;1.00
1592;DHT22;789;51.612;7.510;2024-02-16T13:57:37;16.10;1.00
1592;DHT22;789;51.612;7.510;2024-02-16T14:00:08;16.00;1.00
1592;DHT22;789;51.612;7.510;2024-02-16T14:02:35;16.00;1.00
1592;DHT22;789;51.612;7.510;2024-02-16T14:05:02;16.00;1.00
1592;DHT22;789;51.612;7.510;2024-02-16T14:07:29;15.90;1.00
1592;DHT22;789;51.612;7.510;2024-02-16T14:09:56;15.90;1.00
1592;DHT22;789;51.612;7.510;2024-02-16T14:12:23;15.80;1.00
1592;DHT22;789;51.612;7.510;2024-02-16T14:14:50;15.60;1.00
1592;DHT22;789;51.612;7.510;2024-02-16T14:17:18;15.40;1.00
1592;DHT22;789;51.612;7.510;2024-02-16T14:19:45;15.40;1.00
1592;DHT22;789;51.612;7.510;2024-02-16T14:22:12;15.40;1.00
1592;DHT22;789;51.612;7.510;2024-02-16T14:24:39;15.20;1.00
1592;DHT22;789;51.612;7.510;2024-02-16T14:27:05;15.10;1.00
1592;DHT22;789;51.612;7.510;2024-02-16T14:29:32;15.10;1.00
1592;DHT22;789;51.612;7.510;2024-02-16T14:31:59;15.10;1.00
1592;DHT22;789;51.612;7.510;2024-02-16T14:34:27;15.10;1.00
1592;DHT22;789;51.612;7.510;2024-02-16T14:36:54;15.20;1.00
1592;DHT22;789;51.612;7.510;2024-02-16T14:39:21;15.10;1.00
1592;DHT22;789;51.612;7.510;2024-02-16T14:41:50;15.00;1.00
1592;DHT22;789;51.612;7.510;2024-02-16T14:44:17;15.00;1.00
1592;DHT22;789;51.612;7.510;2024-02-16T14:46:44;15.50;1.00
1592;DHT22;789;51.612;7.510;2024-02-16T14:49:14;15.10;1.00
1592;DHT22;789;51.612;7.510;2024-02-16T14:51:47;15.10;1.00
1592;DHT22;789;51.612;7.510;2024-02-16T14:54:14;15.10;1.00
1592;DHT22;789;51.612;7.510;2024-02-16T14:56:41;15.00;1.00
1592;DHT22;789;51.612;7.510;2024-02-16T14:59:08;15.00;1.00
1592;DHT22;789;51.612;7.510;2024-02-16T15:01:36;14.80;1.00
1592;DHT22;789;51.612;7.510;2024-02-16T15:04:08;14.80;1.00
1592;DHT22;789;51.612;7.510;2024-02-16T15:06:34;14.70;1.00
1592;DHT22;789;51.612;7.510;2024-02-16T15:09:03;14.60;1.00
1592;DHT22;789;51.612;7.510;2024-02-16T15:11:30;14.80;1.00
1592;DHT22;789;51.612;7.510;2024-02-16T15:13:57;14.70;1.00
1592;DHT22;789;51.612;7.510;2024-02-16T15:16:23;14.70;1.00
1592;DHT22;789;51.612;7.510;2024-02-16T15:18:50;14.70;1.00
1592;DHT22;789;51.612;7.510;2024-02-16T15:21:17;14.80;1.00
1592;DHT22;789;51.612;7.510;2024-02-16T15:23:44;14.80;1.00
1592;DHT22;789;51.612;7.510;2024-02-16T15:26:12;15.40;1.00
1592;DHT22;789;51.612;7.510;2024-02-16T15:28:39;15.10;1.00
1592;DHT22;789;51.612;7.510;2024-02-16T15:31:06;14.80;1.00
1592;DHT22;789;51.612;7.510;2024-02-16T15:33:33;14.80;1.00
1592;DHT22;789;51.612;7.510;2024-02-16T15:36:00;14.80;1.00
1592;DHT22;789;51.612;7.510;2024-02-16T15:38:27;14.80;1.00
1592;DHT22;789;51.612;7.510;2024-02-16T15:40:54;14.90;1.00
1592;DHT22;789;51.612;7.510;2024-02-16T15:43:22;15.10;1.00
1592;DHT22;789;51.612;7.510;2024-02-16T15:45:50;14.80;1.00
1592;DHT22;789;51.612;7.510;2024-02-16T15:48:18;14.70;1.00
1592;DHT22;789;51.612;7.510;2024-02-16T15:50:45;14.70;1.00
1592;DHT22;789;51.612;7.510;2024-02-16T15:53:12;14.70;1.00
1592;DHT22;789;51.612;7.510;2024-02-16T15:55:39;14.60;1.00
1592;DHT22;789;51.612;7.510;2024-02-16T15:58:08;14.70;1.00
1592;DHT22;789;51.612;7.510;2024-02-16T16:00:36;14.60;1.00
1592;DHT22;789;51.612;7.510;2024-02-16T16:03:03;14.60;1.00
1592;DHT22;789;51.612;7.510;2024-02-16T16:05:30;14.70;1.00
1592;DHT22;789;51.612;7.510;2024-02-16T16:07:59;14.70;1.00
1592;DHT22;789;51.612;7.510;2024-02-16T16:10:25;15.30;1.00
1592;DHT22;789;51.612;7.510;2024-02-16T16:12:52;15.20;1.00
1592;DHT22;789;51.612;7.510;2024-02-16T16:15:19;15.10;1.00
1592;DHT22;789;51.612;7.510;2024-02-16T16:17:47;14.70;1.00
1592;DHT22;789;51.612;7.510;2024-02-16T16:20:14;14.70;1.00
1592;DHT22;789;51.612;7.510;2024-02-16T16:22:42;14.70;1.00
1592;DHT22;789;51.612;7.510;2024-02-16T16:25:08;15.00;1.00
1592;DHT22;789;51.612;7.510;2024-02-16T16:27:35;14.60;1.00
1592;DHT22;789;51.612;7.510;2024-02-16T16:30:02;14.60;1.00
1592;DHT22;789;51.612;7.510;2024-02-16T16:32:29;14.70;1.00
1592;DHT22;789;51.612;7.510;2024-02-16T16:34:57;14.60;1.00
1592;DHT22;789;51.612;7.510;2024-02-16T16:37:24;14.70;1.00